Time;durP1;ratioP1;P1;durP2;ratioP2;P2;SDS_P1;SDS_P2;PMS_P1;PMS_P2;Temp;Humidity;BMP_temperature;BMP_pressure;BME280_temperature;BME280_humidity;BME280_pressure;Samples;Min_cycle;Max_cycle;Signal;HPM_P1;HPM_P2
2022/04/14 00:02:24;;;;;;;22.25;10.98;;;;;;;;;;5074713;28;20119;-42
2022/04/14 00:04:50;;;;;;;22.92;11.43;;;;;;;;;;5074727;28;20028;-45
2022/04/14 00:07:19;;;;;;;27.73;14.20;;;;;;;;;;5074503;28;20024;-39
2022/04/14 00:09:45;;;;;;;24.10;12.02;;;;;;;;;;5074434;28;20019;-38
2022/04/14 00:12:11;;;;;;;19.17;10.50;;;;;;;;;;5074686;28;20033;-44
2022/04/14 00:14:37;;;;;;;24.60;10.73;;;;;;;;;;5074620;28;20039;-38
2022/04/14 00:17:03;;;;;;;18.70;9.73;;;;;;;;;;5074363;28;20400;-40
2022/04/14 00:19:30;;;;;;;26.00;10.73;;;;;;;;;;5074254;28;20070;-39
2022/04/14 00:22:00;;;;;;;19.13;10.07;;;;;;;;;;5074698;28;20046;-45
2022/04/14 00:24:26;;;;;;;15.75;9.07;;;;;;;;;;5074204;28;20031;-41
2022/04/14 00:26:52;;;;;;;17.55;11.38;;;;;;;;;;5074308;28;20028;-39
2022/04/14 00:29:18;;;;;;;51.95;36.20;;;;;;;;;;5074154;28;20028;-41
2022/04/14 00:31:44;;;;;;;39.25;29.55;;;;;;;;;;5074095;28;20571;-45
2022/04/14 00:34:10;;;;;;;32.80;19.75;;;;;;;;;;5074063;28;20029;-45
2022/04/14 00:36:36;;;;;;;23.17;13.75;;;;;;;;;;5073685;28;20020;-39
2022/04/14 00:39:03;;;;;;;17.05;10.70;;;;;;;;;;5072868;28;20505;-38
2022/04/14 00:41:29;;;;;;;19.23;10.27;;;;;;;;;;5074000;28;20112;-39
2022/04/14 00:43:59;;;;;;;19.10;10.45;;;;;;;;;;5073695;28;20115;-39
2022/04/14 00:46:25;;;;;;;19.02;11.88;;;;;;;;;;5073843;28;20021;-39
2022/04/14 00:48:52;;;;;;;18.17;11.18;;;;;;;;;;5073586;28;20087;-41
2022/04/14 00:51:18;;;;;;;21.60;11.75;;;;;;;;;;5073720;28;20071;-38
2022/04/14 00:53:44;;;;;;;18.00;10.60;;;;;;;;;;5073629;28;20353;-38
2022/04/14 00:56:10;;;;;;;19.90;11.70;;;;;;;;;;5073945;28;20028;-39
2022/04/14 00:58:37;;;;;;;22.33;11.85;;;;;;;;;;5073608;28;20035;-45
2022/04/14 01:01:05;;;;;;;22.23;12.88;;;;;;;;;;5073734;28;20392;-46
2022/04/14 01:03:32;;;;;;;24.85;12.45;;;;;;;;;;5073404;28;20529;-42
2022/04/14 01:05:59;;;;;;;19.75;10.32;;;;;;;;;;5073479;28;20111;-41
2022/04/14 01:08:32;;;;;;;24.52;12.50;;;;;;;;;;5073384;28;20031;-38
2022/04/14 01:10:58;;;;;;;25.20;12.77;;;;;;;;;;5073428;28;20016;-40
2022/04/14 01:13:25;;;;;;;24.63;13.77;;;;;;;;;;5073597;28;20028;-39
2022/04/14 01:15:56;;;;;;;24.45;13.40;;;;;;;;;;5073415;28;20059;-39
2022/04/14 01:18:25;;;;;;;26.17;13.68;;;;;;;;;;5073660;28;20024;-39
2022/04/14 01:20:51;;;;;;;26.73;13.23;;;;;;;;;;5073661;28;20017;-39
2022/04/14 01:23:19;;;;;;;23.38;13.57;;;;;;;;;;5073226;28;20116;-39
2022/04/14 01:25:45;;;;;;;27.27;14.07;;;;;;;;;;5073319;28;20510;-41
2022/04/14 01:28:11;;;;;;;27.55;13.95;;;;;;;;;;5073221;28;20036;-45
2022/04/14 01:30:37;;;;;;;21.42;13.52;;;;;;;;;;5073695;28;20020;-40
2022/04/14 01:33:03;;;;;;;21.98;13.60;;;;;;;;;;5073272;28;20024;-39
2022/04/14 01:35:30;;;;;;;30.60;15.65;;;;;;;;;;5073332;28;20145;-39
2022/04/14 01:37:56;;;;;;;27.27;16.08;;;;;;;;;;5073332;28;20389;-38
2022/04/14 01:40:22;;;;;;;31.55;16.08;;;;;;;;;;5073153;28;20028;-41
2022/04/14 01:42:51;;;;;;;27.88;16.40;;;;;;;;;;5072985;28;20029;-40
2022/04/14 01:45:19;;;;;;;26.98;15.18;;;;;;;;;;5072946;28;20404;-40
2022/04/14 01:47:45;;;;;;;20.55;12.93;;;;;;;;;;5074570;28;20504;-38
2022/04/14 01:50:13;;;;;;;21.23;12.25;;;;;;;;;;5077161;28;20052;-39
2022/04/14 01:52:39;;;;;;;21.02;11.90;;;;;;;;;;5077104;28;20024;-41
2022/04/14 01:55:06;;;;;;;19.17;10.13;;;;;;;;;;5077331;28;20029;-41
2022/04/14 01:57:32;;;;;;;17.45;10.35;;;;;;;;;;5076892;28;20032;-40
2022/04/14 01:59:59;;;;;;;18.77;10.93;;;;;;;;;;5077047;28;20112;-39
2022/04/14 02:02:25;;;;;;;20.02;10.27;;;;;;;;;;5076786;28;20036;-40
2022/04/14 02:04:53;;;;;;;19.35;9.52;;;;;;;;;;5076945;28;20028;-40
2022/04/14 02:07:19;;;;;;;17.67;10.45;;;;;;;;;;5077296;28;20066;-39
2022/04/14 02:09:46;;;;;;;17.77;10.02;;;;;;;;;;5076745;28;20025;-39
2022/04/14 02:12:12;;;;;;;18.65;9.15;;;;;;;;;;5076910;28;20434;-37
2022/04/14 02:14:41;;;;;;;19.85;10.85;;;;;;;;;;5076664;28;20461;-37
2022/04/14 02:17:08;;;;;;;18.20;11.63;;;;;;;;;;5076515;28;20066;-41
2022/04/14 02:19:34;;;;;;;46.25;12.02;;;;;;;;;;5076613;28;20020;-46
2022/04/14 02:22:02;;;;;;;19.27;11.15;;;;;;;;;;5076326;28;20461;-37
2022/04/14 02:24:28;;;;;;;21.73;12.38;;;;;;;;;;5076778;28;20024;-47
2022/04/14 02:26:55;;;;;;;20.55;13.27;;;;;;;;;;5076499;28;20357;-40
2022/04/14 02:29:21;;;;;;;19.52;11.57;;;;;;;;;;5076258;28;20050;-40
2022/04/14 02:31:47;;;;;;;23.13;11.02;;;;;;;;;;5076463;28;20527;-43
2022/04/14 02:34:14;;;;;;;19.13;10.68;;;;;;;;;;5076398;28;20031;-44
2022/04/14 02:36:40;;;;;;;18.80;10.70;;;;;;;;;;5076419;28;20017;-45
2022/04/14 02:39:06;;;;;;;21.40;11.27;;;;;;;;;;5076551;28;20116;-50
2022/04/14 02:41:34;;;;;;;18.70;10.52;;;;;;;;;;5076610;28;20091;-50
2022/04/14 02:44:00;;;;;;;15.25;9.70;;;;;;;;;;5076393;28;20397;-48
2022/04/14 02:46:26;;;;;;;15.20;9.23;;;;;;;;;;5076450;28;20056;-48
2022/04/14 02:48:52;;;;;;;19.42;9.63;;;;;;;;;;5075999;28;20068;-49
2022/04/14 02:51:18;;;;;;;20.13;9.45;;;;;;;;;;5076055;28;20033;-49
2022/04/14 02:53:44;;;;;;;16.60;9.80;;;;;;;;;;5076102;28;20361;-46
2022/04/14 02:56:10;;;;;;;20.42;9.63;;;;;;;;;;5076164;28;20020;-46
2022/04/14 02:58:37;;;;;;;22.45;10.25;;;;;;;;;;5075964;28;20032;-41
2022/04/14 03:01:03;;;;;;;29.52;10.65;;;;;;;;;;5074828;28;20024;-43
2022/04/14 03:03:29;;;;;;;29.38;11.15;;;;;;;;;;5075787;28;20495;-44
2022/04/14 03:05:56;;;;;;;24.80;11.48;;;;;;;;;;5075760;28;20016;-46
2022/04/14 03:08:22;;;;;;;17.50;10.05;;;;;;;;;;5075670;28;20029;-45
2022/04/14 03:10:48;;;;;;;24.45;11.27;;;;;;;;;;5075666;28;20021;-46
2022/04/14 03:13:14;;;;;;;22.45;11.43;;;;;;;;;;5076042;28;20035;-46
2022/04/14 03:15:40;;;;;;;26.75;11.52;;;;;;;;;;5075696;28;20031;-46
2022/04/14 03:18:06;;;;;;;21.30;11.68;;;;;;;;;;5075600;28;20024;-46
2022/04/14 03:20:35;;;;;;;18.23;11.35;;;;;;;;;;5075553;28;20020;-48
2022/04/14 03:23:01;;;;;;;21.75;12.10;;;;;;;;;;5075364;28;20381;-48
2022/04/14 03:25:27;;;;;;;26.50;13.48;;;;;;;;;;5075629;28;20020;-44
2022/04/14 03:27:53;;;;;;;27.40;13.77;;;;;;;;;;5075485;28;20052;-46
2022/04/14 03:30:19;;;;;;;27.63;14.93;;;;;;;;;;5075361;28;20036;-37
2022/04/14 03:32:48;;;;;;;27.95;15.45;;;;;;;;;;5075327;28;20021;-46
2022/04/14 03:35:16;;;;;;;25.05;15.32;;;;;;;;;;5058897;28;20052;-39
2022/04/14 03:37:42;;;;;;;57.40;25.70;;;;;;;;;;5054056;28;20029;-41
2022/04/14 03:40:08;;;;;;;58.00;27.55;;;;;;;;;;5054511;28;20028;-44
2022/04/14 03:42:38;;;;;;;91.00;40.67;;;;;;;;;;5054081;28;20465;-40
2022/04/14 03:45:05;;;;;;;101.78;45.10;;;;;;;;;;5054418;28;20025;-39
2022/04/14 03:47:31;;;;;;;97.10;43.22;;;;;;;;;;5054207;28;20066;-46
2022/04/14 03:49:57;;;;;;;90.53;39.00;;;;;;;;;;5054108;28;20114;-40
2022/04/14 03:52:23;;;;;;;135.80;57.08;;;;;;;;;;5054145;28;20032;-39
2022/04/14 03:54:49;;;;;;;158.70;67.82;;;;;;;;;;5054421;28;20021;-41
2022/04/14 03:57:15;;;;;;;156.30;66.05;;;;;;;;;;5054086;28;20051;-45
2022/04/14 03:59:41;;;;;;;150.10;65.20;;;;;;;;;;5054080;28;20029;-46
2022/04/14 04:02:08;;;;;;;143.68;61.35;;;;;;;;;;5054155;28;20084;-40
2022/04/14 04:04:36;;;;;;;135.45;57.90;;;;;;;;;;5053895;28;20017;-42
2022/04/14 04:07:04;;;;;;;87.60;39.58;;;;;;;;;;5054142;28;20105;-44
2022/04/14 04:09:32;;;;;;;74.20;33.60;;;;;;;;;;5053563;28;20505;-41
2022/04/14 04:11:58;;;;;;;57.85;25.30;;;;;;;;;;5054177;28;20029;-45
2022/04/14 04:14:24;;;;;;;68.45;28.75;;;;;;;;;;5054380;28;20075;-42
2022/04/14 04:16:50;;;;;;;51.90;25.95;;;;;;;;;;5054184;28;20116;-41
2022/04/14 04:19:17;;;;;;;43.20;19.83;;;;;;;;;;5053957;28;20047;-40
2022/04/14 04:21:43;;;;;;;44.13;21.52;;;;;;;;;;5052989;28;20036;-46
2022/04/14 04:24:09;;;;;;;50.42;21.35;;;;;;;;;;5054396;28;20040;-46
2022/04/14 04:26:35;;;;;;;52.33;22.80;;;;;;;;;;5054100;28;20036;-46
2022/04/14 04:29:01;;;;;;;49.42;22.08;;;;;;;;;;5053618;28;20036;-42
2022/04/14 04:31:27;;;;;;;57.30;25.35;;;;;;;;;;5053688;28;20496;-40
2022/04/14 04:33:53;;;;;;;67.38;30.58;;;;;;;;;;5054033;28;20392;-41
2022/04/14 04:36:19;;;;;;;75.40;32.38;;;;;;;;;;5052765;28;20053;-50
2022/04/14 04:38:45;;;;;;;79.53;34.75;;;;;;;;;;5053668;28;20025;-41
2022/04/14 04:41:11;;;;;;;81.35;36.22;;;;;;;;;;5053931;28;20481;-51
2022/04/14 04:43:40;;;;;;;68.63;31.17;;;;;;;;;;5053811;28;20037;-48
2022/04/14 04:46:08;;;;;;;67.22;30.35;;;;;;;;;;5053678;28;20021;-48
2022/04/14 04:48:34;;;;;;;58.10;28.00;;;;;;;;;;5053056;28;20060;-37
2022/04/14 04:51:00;;;;;;;56.00;27.35;;;;;;;;;;5052774;28;20018;-48
2022/04/14 04:53:26;;;;;;;41.42;20.00;;;;;;;;;;5053906;28;20039;-38
2022/04/14 04:55:52;;;;;;;37.15;18.92;;;;;;;;;;5053786;28;20021;-41
2022/04/14 04:58:18;;;;;;;64.63;29.80;;;;;;;;;;5052887;28;20068;-42
2022/04/14 05:00:47;;;;;;;41.67;23.23;;;;;;;;;;5053026;28;20025;-46
2022/04/14 05:03:15;;;;;;;42.47;20.42;;;;;;;;;;5053117;28;20043;-39
2022/04/14 05:05:41;;;;;;;24.75;14.88;;;;;;;;;;5052776;28;20021;-41
2022/04/14 05:08:08;;;;;;;24.85;14.15;;;;;;;;;;5052548;28;20025;-39
2022/04/14 05:10:34;;;;;;;35.92;15.32;;;;;;;;;;5052434;28;20017;-43
2022/04/14 05:13:00;;;;;;;23.85;12.80;;;;;;;;;;5053080;28;20091;-42
2022/04/14 05:15:26;;;;;;;22.45;12.15;;;;;;;;;;5053466;28;20100;-40
2022/04/14 05:17:57;;;;;;;24.25;13.52;;;;;;;;;;5052932;28;20425;-45
2022/04/14 05:20:23;;;;;;;30.27;13.80;;;;;;;;;;5053056;28;20025;-40
2022/04/14 05:22:50;;;;;;;23.50;13.18;;;;;;;;;;5052196;28;20388;-41
2022/04/14 05:25:16;;;;;;;23.52;14.35;;;;;;;;;;5053387;28;20074;-42
2022/04/14 05:27:42;;;;;;;31.02;16.33;;;;;;;;;;5052971;28;20032;-39
2022/04/14 05:30:11;;;;;;;33.53;17.00;;;;;;;;;;5052755;28;20028;-40
2022/04/14 05:32:41;;;;;;;29.42;17.30;;;;;;;;;;5052915;28;20033;-41
2022/04/14 05:35:07;;;;;;;39.50;20.15;;;;;;;;;;5052841;28;20442;-38
2022/04/14 05:37:36;;;;;;;38.90;20.75;;;;;;;;;;5052974;28;20029;-40
2022/04/14 05:40:04;;;;;;;43.38;22.02;;;;;;;;;;5052986;28;20433;-42
2022/04/14 05:42:30;;;;;;;37.63;18.80;;;;;;;;;;5052912;28;20377;-40
2022/04/14 05:44:56;;;;;;;30.23;16.90;;;;;;;;;;5053207;28;20017;-39
2022/04/14 05:47:25;;;;;;;17.08;11.27;;;;;;;;;;5052680;28;20358;-43
2022/04/14 05:49:52;;;;;;;16.70;10.77;;;;;;;;;;5052420;28;20051;-47
2022/04/14 05:52:18;;;;;;;16.33;10.80;;;;;;;;;;5052857;28;20109;-39
2022/04/14 05:54:47;;;;;;;15.60;10.05;;;;;;;;;;5053083;28;20384;-48
2022/04/14 05:57:16;;;;;;;17.98;10.98;;;;;;;;;;5052702;28;20036;-50
2022/04/14 05:59:43;;;;;;;15.85;10.43;;;;;;;;;;5052423;28;20083;-48
2022/04/14 06:02:09;;;;;;;14.32;10.10;;;;;;;;;;5052734;28;20028;-46
2022/04/14 06:04:38;;;;;;;19.67;11.10;;;;;;;;;;5053074;28;20112;-46
2022/04/14 06:07:04;;;;;;;17.75;11.40;;;;;;;;;;5052777;28;20527;-45
2022/04/14 06:09:32;;;;;;;36.53;23.02;;;;;;;;;;5051973;28;20470;-40
2022/04/14 06:11:59;;;;;;;53.85;27.20;;;;;;;;;;5052403;28;20071;-38
2022/04/14 06:14:26;;;;;;;34.00;22.13;;;;;;;;;;5052673;28;20029;-40
2022/04/14 06:16:52;;;;;;;28.73;16.80;;;;;;;;;;5052431;28;20036;-40
2022/04/14 06:19:18;;;;;;;22.60;13.35;;;;;;;;;;5052023;28;20025;-40
2022/04/14 06:21:45;;;;;;;21.05;13.70;;;;;;;;;;5051309;28;20033;-50
2022/04/14 06:24:11;;;;;;;29.23;17.42;;;;;;;;;;5052619;28;20100;-41
2022/04/14 06:26:39;;;;;;;25.15;14.75;;;;;;;;;;5052799;28;20025;-46
2022/04/14 06:29:05;;;;;;;24.30;15.07;;;;;;;;;;5052385;28;20036;-41
2022/04/14 06:31:31;;;;;;;31.98;19.58;;;;;;;;;;5052096;28;20509;-43
2022/04/14 06:33:58;;;;;;;28.73;15.70;;;;;;;;;;5054300;28;20358;-50
2022/04/14 06:36:24;;;;;;;20.13;12.35;;;;;;;;;;5056452;28;20025;-40
2022/04/14 06:38:52;;;;;;;17.63;11.45;;;;;;;;;;5055758;28;20024;-50
2022/04/14 06:41:18;;;;;;;15.30;9.93;;;;;;;;;;5056138;28;20035;-40
2022/04/14 06:43:49;;;;;;;18.10;10.50;;;;;;;;;;5056132;28;20036;-51
2022/04/14 06:46:15;;;;;;;23.63;14.50;;;;;;;;;;5056163;28;20461;-44
2022/04/14 06:48:41;;;;;;;33.88;20.77;;;;;;;;;;5055228;28;20278;-38
2022/04/14 06:51:07;;;;;;;70.05;41.03;;;;;;;;;;5055557;28;20531;-41
2022/04/14 06:53:33;;;;;;;68.00;36.45;;;;;;;;;;5055846;28;20091;-46
2022/04/14 06:55:59;;;;;;;32.42;17.30;;;;;;;;;;5055862;28;20057;-41
2022/04/14 06:58:25;;;;;;;27.63;16.90;;;;;;;;;;5055743;28;20063;-44
2022/04/14 07:00:51;;;;;;;20.50;13.32;;;;;;;;;;5055596;28;20029;-40
2022/04/14 07:03:19;;;;;;;18.70;11.20;;;;;;;;;;5056103;28;20102;-48
2022/04/14 07:05:46;;;;;;;13.45;7.60;;;;;;;;;;5055328;28;20104;-41
2022/04/14 07:08:12;;;;;;;13.07;7.35;;;;;;;;;;5055265;28;20024;-46
2022/04/14 07:10:38;;;;;;;15.43;8.73;;;;;;;;;;5055080;28;20017;-40
2022/04/14 07:13:04;;;;;;;10.85;7.10;;;;;;;;;;5055512;28;20525;-46
2022/04/14 07:15:30;;;;;;;14.10;7.72;;;;;;;;;;5055530;28;20109;-48
2022/04/14 07:17:56;;;;;;;13.40;7.20;;;;;;;;;;5055162;28;20025;-45
2022/04/14 07:20:23;;;;;;;15.18;9.07;;;;;;;;;;5055072;28;20108;-51
2022/04/14 07:22:52;;;;;;;14.50;8.07;;;;;;;;;;5055553;28;20047;-40
2022/04/14 07:25:19;;;;;;;10.20;7.30;;;;;;;;;;5055123;28;20045;-42
2022/04/14 07:27:45;;;;;;;12.93;8.15;;;;;;;;;;5054867;28;20025;-42
2022/04/14 07:30:12;;;;;;;12.73;7.38;;;;;;;;;;5054706;28;20033;-42
2022/04/14 07:32:45;;;;;;;12.10;8.57;;;;;;;;;;5054953;28;20025;-40
2022/04/14 07:35:12;;;;;;;11.50;8.20;;;;;;;;;;5055077;28;20031;-44
2022/04/14 07:37:38;;;;;;;12.82;7.47;;;;;;;;;;5055230;28;20025;-47
2022/04/14 07:40:05;;;;;;;9.90;7.28;;;;;;;;;;5054856;28;20535;-46
2022/04/14 07:42:35;;;;;;;14.25;7.80;;;;;;;;;;5055311;28;20064;-50
2022/04/14 07:45:01;;;;;;;13.27;7.82;;;;;;;;;;5054093;28;20033;-46
2022/04/14 07:47:27;;;;;;;12.80;7.18;;;;;;;;;;5054615;28;20032;-41
2022/04/14 07:49:53;;;;;;;12.40;7.18;;;;;;;;;;5054561;28;20036;-42
2022/04/14 07:52:19;;;;;;;12.27;6.53;;;;;;;;;;5054543;28;20473;-45
2022/04/14 07:54:45;;;;;;;11.27;7.30;;;;;;;;;;5054909;28;20075;-46
2022/04/14 07:57:12;;;;;;;12.82;7.32;;;;;;;;;;5054785;28;20028;-41
2022/04/14 07:59:38;;;;;;;8.32;6.05;;;;;;;;;;5054177;28;20028;-47
2022/04/14 08:02:04;;;;;;;10.38;6.22;;;;;;;;;;5054690;28;20040;-43
2022/04/14 08:04:31;;;;;;;9.70;5.70;;;;;;;;;;5054353;28;20377;-42
2022/04/14 08:06:58;;;;;;;9.63;6.32;;;;;;;;;;5054474;28;20527;-40
2022/04/14 08:09:24;;;;;;;15.68;6.72;;;;;;;;;;5054231;28;20040;-40
2022/04/14 08:11:51;;;;;;;10.10;6.50;;;;;;;;;;5054049;28;20017;-44
2022/04/14 08:14:17;;;;;;;9.82;7.00;;;;;;;;;;5054571;28;20024;-44
2022/04/14 08:16:43;;;;;;;13.07;7.30;;;;;;;;;;5054426;28;20025;-41
2022/04/14 08:19:09;;;;;;;15.65;6.45;;;;;;;;;;5053816;28;20052;-40
2022/04/14 08:21:35;;;;;;;10.13;5.97;;;;;;;;;;5054253;28;20484;-41
2022/04/14 08:24:02;;;;;;;7.88;5.28;;;;;;;;;;5053307;28;20068;-43
2022/04/14 08:26:28;;;;;;;6.18;4.72;;;;;;;;;;5054383;28;20017;-43
2022/04/14 08:28:56;;;;;;;10.38;5.68;;;;;;;;;;5053942;28;20033;-45
2022/04/14 08:31:24;;;;;;;9.57;5.50;;;;;;;;;;5053643;28;20078;-51
2022/04/14 08:33:50;;;;;;;8.88;5.78;;;;;;;;;;5053812;28;20451;-43
2022/04/14 08:36:17;;;;;;;10.13;5.30;;;;;;;;;;5054293;28;20108;-42
2022/04/14 08:38:45;;;;;;;10.10;5.07;;;;;;;;;;5053873;28;20162;-41
2022/04/14 08:41:13;;;;;;;9.52;5.40;;;;;;;;;;5053737;28;20380;-39
2022/04/14 08:43:43;;;;;;;6.82;4.35;;;;;;;;;;5053469;28;20029;-43
2022/04/14 08:46:10;;;;;;;8.77;5.00;;;;;;;;;;5054329;28;20032;-43
2022/04/14 08:48:37;;;;;;;7.65;4.20;;;;;;;;;;5053238;28;20060;-40
2022/04/14 08:51:05;;;;;;;12.93;4.60;;;;;;;;;;5053276;28;20464;-41
2022/04/14 08:53:32;;;;;;;4.65;3.33;;;;;;;;;;5053690;28;20035;-42
2022/04/14 08:55:58;;;;;;;4.25;3.45;;;;;;;;;;5053633;28;20021;-47
2022/04/14 08:58:28;;;;;;;5.03;3.58;;;;;;;;;;5053420;28;20033;-44
2022/04/14 09:00:55;;;;;;;11.15;3.80;;;;;;;;;;5053340;28;20473;-50
2022/04/14 09:03:21;;;;;;;8.75;3.38;;;;;;;;;;5053454;28;20563;-42
2022/04/14 09:05:47;;;;;;;4.90;4.10;;;;;;;;;;5053514;28;20028;-43
2022/04/14 09:08:16;;;;;;;7.20;3.55;;;;;;;;;;5053452;28;20033;-43
2022/04/14 09:10:44;;;;;;;7.13;3.90;;;;;;;;;;5053042;28;20029;-42
2022/04/14 09:13:14;;;;;;;6.03;4.28;;;;;;;;;;5053116;28;20021;-41
2022/04/14 09:15:42;;;;;;;6.80;3.80;;;;;;;;;;5053490;28;20057;-51
2022/04/14 09:18:08;;;;;;;8.10;3.65;;;;;;;;;;5053589;28;20043;-45
2022/04/14 09:20:41;;;;;;;5.82;3.78;;;;;;;;;;5052970;28;20017;-40
2022/04/14 09:23:13;;;;;;;8.80;3.75;;;;;;;;;;5053294;28;20124;-40
2022/04/14 09:25:40;;;;;;;7.82;4.10;;;;;;;;;;5053397;28;20100;-41
2022/04/14 09:28:13;;;;;;;6.18;4.00;;;;;;;;;;5053029;28;20086;-41
2022/04/14 09:30:39;;;;;;;16.90;4.60;;;;;;;;;;5052490;28;20029;-39
2022/04/14 09:33:06;;;;;;;6.22;3.88;;;;;;;;;;5053234;28;20178;-41
2022/04/14 09:35:32;;;;;;;7.85;4.05;;;;;;;;;;5052800;28;20021;-43
2022/04/14 09:38:02;;;;;;;4.68;3.30;;;;;;;;;;5053024;28;20563;-45
2022/04/14 09:40:34;;;;;;;6.97;3.63;;;;;;;;;;5052723;28;20029;-43
2022/04/14 09:43:01;;;;;;;5.20;3.53;;;;;;;;;;5053024;28;20033;-42
2022/04/14 09:45:30;;;;;;;5.57;3.95;;;;;;;;;;5053195;28;20025;-41
2022/04/14 09:48:04;;;;;;;5.18;3.90;;;;;;;;;;5052841;28;20049;-42
2022/04/14 09:50:49;;;;;;;8.55;4.47;;;;;;;;;;5052679;28;20028;-40
2022/04/14 09:53:22;;;;;;;6.05;4.00;;;;;;;;;;5052832;28;20389;-47
2022/04/14 09:55:51;;;;;;;14.43;3.83;;;;;;;;;;5052986;28;20020;-42
2022/04/14 09:58:18;;;;;;;6.15;3.92;;;;;;;;;;5052773;28;20044;-43
2022/04/14 10:00:48;;;;;;;5.07;3.22;;;;;;;;;;5052128;28;20025;-50
2022/04/14 10:03:16;;;;;;;4.70;3.25;;;;;;;;;;5053265;28;20033;-46
2022/04/14 10:05:42;;;;;;;4.50;2.80;;;;;;;;;;5052763;28;20048;-42
2022/04/14 10:08:08;;;;;;;6.43;3.72;;;;;;;;;;5053249;28;20025;-41
2022/04/14 10:10:35;;;;;;;5.25;3.88;;;;;;;;;;5056254;28;20051;-44
2022/04/14 10:13:03;;;;;;;5.13;3.58;;;;;;;;;;5056808;28;20032;-42
2022/04/14 10:15:31;;;;;;;6.78;3.47;;;;;;;;;;5056817;28;20028;-45
2022/04/14 10:17:58;;;;;;;6.28;3.60;;;;;;;;;;5056331;28;20040;-42
2022/04/14 10:20:26;;;;;;;5.28;3.40;;;;;;;;;;5056280;28;20025;-47
2022/04/14 10:22:52;;;;;;;8.13;3.65;;;;;;;;;;5056695;28;20142;-42
2022/04/14 10:25:19;;;;;;;5.47;3.45;;;;;;;;;;5056507;28;20032;-46
2022/04/14 10:27:45;;;;;;;6.45;3.45;;;;;;;;;;5056381;28;20021;-40
2022/04/14 10:30:16;;;;;;;4.82;3.80;;;;;;;;;;5055949;28;20480;-52
2022/04/14 10:32:43;;;;;;;6.13;3.08;;;;;;;;;;5055984;28;20052;-51
2022/04/14 10:35:10;;;;;;;7.25;3.90;;;;;;;;;;5056278;28;20024;-50
2022/04/14 10:37:45;;;;;;;4.80;3.60;;;;;;;;;;5056250;28;20465;-42
2022/04/14 10:40:12;;;;;;;6.18;3.33;;;;;;;;;;5056023;28;20051;-41
2022/04/14 10:42:40;;;;;;;6.63;3.25;;;;;;;;;;5056509;28;20017;-49
2022/04/14 10:45:17;;;;;;;5.88;3.25;;;;;;;;;;5056338;28;20029;-42
2022/04/14 10:47:43;;;;;;;5.85;3.33;;;;;;;;;;5056108;28;20103;-42
2022/04/14 10:50:37;;;;;;;6.30;4.00;;;;;;;;;;5055570;28;20028;-41
2022/04/14 10:53:08;;;;;;;6.63;4.22;;;;;;;;;;5053946;28;20037;-45
2022/04/14 10:55:41;;;;;;;7.15;3.47;;;;;;;;;;5056079;28;20021;-43
2022/04/14 10:58:08;;;;;;;4.25;3.45;;;;;;;;;;5055851;28;20106;-41
2022/04/14 11:00:37;;;;;;;6.32;3.13;;;;;;;;;;5055500;28;20056;-43
2022/04/14 11:03:04;;;;;;;5.55;3.10;;;;;;;;;;5055724;28;21901;-41
2022/04/14 11:05:50;;;;;;;7.57;3.70;;;;;;;;;;5055694;28;20029;-41
2022/04/14 11:08:25;;;;;;;4.55;2.92;;;;;;;;;;5055654;28;20021;-42
2022/04/14 11:11:10;;;;;;;4.72;3.67;;;;;;;;;;5055095;28;20028;-42
2022/04/14 11:13:52;;;;;;;4.07;2.97;;;;;;;;;;5055314;28;20017;-45
2022/04/14 11:16:50;;;;;;;5.53;3.45;;;;;;;;;;5055403;28;20094;-44
2022/04/14 11:19:20;;;;;;;4.93;3.33;;;;;;;;;;5013193;28;20125;-51
2022/04/14 11:22:01;;;;;;;5.65;3.40;;;;;;;;;;5013329;28;20131;-46
2022/04/14 11:24:36;;;;;;;4.78;3.22;;;;;;;;;;5013636;28;20041;-51
2022/04/14 11:27:11;;;;;;;6.57;3.10;;;;;;;;;;5013757;28;20030;-42
2022/04/14 11:29:38;;;;;;;3.83;2.85;;;;;;;;;;5012811;28;20105;-48
2022/04/14 11:32:04;;;;;;;4.57;3.25;;;;;;;;;;5013000;28;20112;-48
2022/04/14 11:34:34;;;;;;;6.82;3.40;;;;;;;;;;5013039;28;20026;-40
2022/04/14 11:37:01;;;;;;;6.63;3.20;;;;;;;;;;5013507;28;20022;-47
2022/04/14 11:39:28;;;;;;;5.85;3.38;;;;;;;;;;5012998;28;20034;-46
2022/04/14 11:41:56;;;;;;;5.72;3.40;;;;;;;;;;5013131;28;20034;-40
2022/04/14 11:44:25;;;;;;;5.65;3.53;;;;;;;;;;5013484;28;20061;-51
2022/04/14 11:46:55;;;;;;;7.82;3.50;;;;;;;;;;5013232;28;20033;-41
2022/04/14 11:49:31;;;;;;;7.35;3.72;;;;;;;;;;5012561;28;20144;-41
2022/04/14 11:51:58;;;;;;;10.15;3.25;;;;;;;;;;5012634;28;20526;-41
2022/04/14 11:54:27;;;;;;;6.90;3.60;;;;;;;;;;5026309;28;20072;-42
2022/04/14 11:56:54;;;;;;;5.53;3.00;;;;;;;;;;5055248;28;20100;-49
2022/04/14 11:59:33;;;;;;;9.77;3.08;;;;;;;;;;5054728;28;20033;-45
2022/04/14 12:02:03;;;;;;;7.97;3.13;;;;;;;;;;5054808;28;20040;-41
2022/04/14 12:04:40;;;;;;;4.30;2.93;;;;;;;;;;5055020;28;20087;-49
2022/04/14 12:07:06;;;;;;;6.15;3.05;;;;;;;;;;5054730;28;20453;-43
2022/04/14 12:09:33;;;;;;;4.90;3.67;;;;;;;;;;5054380;28;20083;-50
2022/04/14 12:12:08;;;;;;;6.20;3.38;;;;;;;;;;5054164;28;20102;-50
2022/04/14 12:14:34;;;;;;;6.22;4.28;;;;;;;;;;5054381;28;20028;-41
2022/04/14 12:17:03;;;;;;;7.10;3.58;;;;;;;;;;5054483;28;20025;-45
2022/04/14 12:19:40;;;;;;;6.53;3.28;;;;;;;;;;5054475;28;20033;-42
2022/04/14 12:22:06;;;;;;;6.78;3.55;;;;;;;;;;5054206;28;20075;-47
2022/04/14 12:24:34;;;;;;;4.70;3.00;;;;;;;;;;5054694;28;20477;-49
2022/04/14 12:27:00;;;;;;;6.68;3.38;;;;;;;;;;5054837;28;20104;-44
2022/04/14 12:29:27;;;;;;;5.93;3.30;;;;;;;;;;5054081;28;20468;-41
2022/04/14 12:31:57;;;;;;;8.23;3.60;;;;;;;;;;5053117;28;20166;-46
2022/04/14 12:34:25;;;;;;;13.53;6.60;;;;;;;;;;5053637;28;20025;-43
2022/04/14 12:36:51;;;;;;;5.13;3.70;;;;;;;;;;5054099;28;20499;-41
2022/04/14 12:39:22;;;;;;;3.55;2.80;;;;;;;;;;5054232;28;20052;-42
2022/04/14 12:41:49;;;;;;;4.60;2.63;;;;;;;;;;5053575;28;20111;-45
2022/04/14 12:44:20;;;;;;;4.15;3.20;;;;;;;;;;5054088;28;20091;-44
2022/04/14 12:46:52;;;;;;;5.45;3.47;;;;;;;;;;5054073;28;20021;-50
2022/04/14 12:49:22;;;;;;;5.10;3.45;;;;;;;;;;5053615;28;20053;-50
2022/04/14 12:51:53;;;;;;;4.35;3.13;;;;;;;;;;5053306;28;20047;-48
2022/04/14 12:54:20;;;;;;;5.25;3.20;;;;;;;;;;5053642;28;20033;-43
2022/04/14 12:56:56;;;;;;;3.67;2.88;;;;;;;;;;5053774;28;20031;-41
2022/04/14 12:59:22;;;;;;;9.80;3.65;;;;;;;;;;5053560;28;20032;-48
2022/04/14 13:01:49;;;;;;;6.20;2.65;;;;;;;;;;5053404;28;20029;-50
2022/04/14 13:04:15;;;;;;;6.15;2.95;;;;;;;;;;5053340;28;20036;-40
2022/04/14 13:06:42;;;;;;;7.68;3.58;;;;;;;;;;5053799;28;20044;-41
2022/04/14 13:09:17;;;;;;;7.10;3.67;;;;;;;;;;5053114;28;20400;-43
2022/04/14 13:11:45;;;;;;;3.95;3.10;;;;;;;;;;5053095;28;20027;-42
2022/04/14 13:14:18;;;;;;;8.32;2.97;;;;;;;;;;5053432;28;20024;-45
2022/04/14 13:16:45;;;;;;;4.65;3.20;;;;;;;;;;5053517;28;20385;-46
2022/04/14 13:19:11;;;;;;;6.70;3.08;;;;;;;;;;5052990;28;20033;-46
2022/04/14 13:21:38;;;;;;;8.75;3.17;;;;;;;;;;5052941;28;20020;-44
2022/04/14 13:24:04;;;;;;;6.07;3.42;;;;;;;;;;5053538;28;20124;-42
2022/04/14 13:26:30;;;;;;;5.53;3.17;;;;;;;;;;5053535;28;20483;-47
2022/04/14 13:28:56;;;;;;;6.93;3.20;;;;;;;;;;5052967;28;20036;-44
2022/04/14 13:31:22;;;;;;;13.55;4.70;;;;;;;;;;5052667;28;20029;-40
2022/04/14 13:33:48;;;;;;;9.15;3.70;;;;;;;;;;5052988;28;20044;-41
2022/04/14 13:36:14;;;;;;;7.05;4.13;;;;;;;;;;5053245;28;20082;-43
2022/04/14 13:38:40;;;;;;;6.10;3.60;;;;;;;;;;5052908;28;20032;-41
2022/04/14 13:41:06;;;;;;;4.13;2.92;;;;;;;;;;5051565;28;20381;-46
2022/04/14 13:43:32;;;;;;;4.43;2.42;;;;;;;;;;5054520;28;20103;-42
2022/04/14 13:45:58;;;;;;;4.78;2.83;;;;;;;;;;5057536;28;20381;-42
2022/04/14 13:48:25;;;;;;;5.13;3.40;;;;;;;;;;5057019;28;20076;-41
2022/04/14 13:50:51;;;;;;;5.75;3.80;;;;;;;;;;5056289;28;20021;-47
2022/04/14 13:53:17;;;;;;;7.57;3.10;;;;;;;;;;5056680;28;20082;-43
2022/04/14 13:55:43;;;;;;;7.07;2.95;;;;;;;;;;5057600;28;20374;-51
2022/04/14 13:58:09;;;;;;;6.15;3.03;;;;;;;;;;5057069;28;20610;-46
2022/04/14 14:00:35;;;;;;;7.25;2.90;;;;;;;;;;5056548;28;20512;-48
2022/04/14 14:03:05;;;;;;;4.22;2.95;;;;;;;;;;5056786;28;20047;-49
2022/04/14 14:05:31;;;;;;;6.88;2.88;;;;;;;;;;5056825;28;20036;-45
2022/04/14 14:07:57;;;;;;;3.72;2.72;;;;;;;;;;5057057;28;20024;-47
2022/04/14 14:10:23;;;;;;;3.80;2.70;;;;;;;;;;5056434;28;20427;-49
2022/04/14 14:12:49;;;;;;;5.75;3.30;;;;;;;;;;5056279;28;20021;-43
2022/04/14 14:15:16;;;;;;;5.05;3.35;;;;;;;;;;5056895;28;20468;-43
2022/04/14 14:17:42;;;;;;;4.25;2.53;;;;;;;;;;5056687;28;20057;-49
2022/04/14 14:20:09;;;;;;;5.82;2.60;;;;;;;;;;5056142;28;20029;-46
2022/04/14 14:22:35;;;;;;;6.95;2.78;;;;;;;;;;5056595;28;20021;-47
2022/04/14 14:25:01;;;;;;;8.07;3.90;;;;;;;;;;5056539;28;20029;-47
2022/04/14 14:27:27;;;;;;;4.72;2.70;;;;;;;;;;5056801;28;20105;-51
2022/04/14 14:29:53;;;;;;;6.90;2.65;;;;;;;;;;5056258;28;20088;-43
2022/04/14 14:32:22;;;;;;;2.95;2.40;;;;;;;;;;5055876;28;20021;-42